createdAt,value
2022-12-08T00:00:04.743Z,85.48
2022-12-08T00:05:04.994Z,85.48
2022-12-08T00:10:25.147Z,85.58
2022-12-08T00:15:05.535Z,85.58
2022-12-08T00:20:03.053Z,85.89
2022-12-08T00:25:03.403Z,85.27
2022-12-08T00:30:03.333Z,84.86
2022-12-08T00:35:03.336Z,84.55
2022-12-08T00:40:03.309Z,84.34
2022-12-08T00:45:04.141Z,84.96
2022-12-08T00:50:03.415Z,84.65
2022-12-08T00:55:03.146Z,84.75
2022-12-08T01:00:04.327Z,85.06
2022-12-08T01:05:02.788Z,86.10
2022-12-08T01:10:02.875Z,85.69
2022-12-08T01:15:02.999Z,85.52
2022-12-08T01:20:03.980Z,85.83
2022-12-08T01:25:02.192Z,85.83
2022-12-08T01:30:03.895Z,85.42
2022-12-08T01:35:03.462Z,85.42
2022-12-08T01:40:03.856Z,85.83
2022-12-08T01:45:03.337Z,86.39
2022-12-08T01:50:03.551Z,86.91
2022-12-08T01:55:01.886Z,86.91
2022-12-08T02:00:02.237Z,87.88
2022-12-08T02:05:01.668Z,87.47
2022-12-08T02:10:02.188Z,87.47
2022-12-08T02:15:05.800Z,87.61
2022-12-08T02:20:05.777Z,88.13
2022-12-08T02:25:02.807Z,88.79
2022-12-08T02:30:01.575Z,89.42
2022-12-08T02:35:01.455Z,90.39
2022-12-08T02:40:01.561Z,90.39
2022-12-08T02:45:01.223Z,90.60
2022-12-08T02:50:01.143Z,90.56
2022-12-08T02:55:01.004Z,89.94
2022-12-08T03:00:01.142Z,89.83
2022-12-08T03:05:00.955Z,90.52
2022-12-08T03:10:01.011Z,89.17
2022-12-08T03:15:00.720Z,88.75
2022-12-08T03:20:00.780Z,87.47
2022-12-08T03:25:00.594Z,87.01
2022-12-08T03:30:00.663Z,87.32
2022-12-08T03:35:04.291Z,87.12
2022-12-08T03:40:04.921Z,86.04
2022-12-08T03:45:00.329Z,85.73
2022-12-08T03:50:02.037Z,85.21
2022-12-08T03:55:00.491Z,84.69
2022-12-08T04:00:00.441Z,84.90
2022-12-08T04:05:03.970Z,84.48
2022-12-08T04:09:59.982Z,84.90
2022-12-08T04:15:00.400Z,84.80
2022-12-08T04:20:01.508Z,84.69
2022-12-08T04:24:59.783Z,85.52
2022-12-08T04:29:59.721Z,85.83
2022-12-08T04:35:01.083Z,85.94
2022-12-08T04:39:59.590Z,85.42
2022-12-08T04:45:03.462Z,86.55
2022-12-08T04:49:59.450Z,86.35
2022-12-08T04:54:59.690Z,86.55
2022-12-08T04:59:59.412Z,87.12
2022-12-08T05:04:59.635Z,87.12
2022-12-08T05:09:59.391Z,87.43
2022-12-08T05:15:03.396Z,87.43
2022-12-08T05:19:59.244Z,87.90
2022-12-08T05:24:58.979Z,88.53
2022-12-08T05:30:00.338Z,88.32
2022-12-08T05:34:59.141Z,87.38
2022-12-08T05:39:58.790Z,88.84
2022-12-08T05:44:58.732Z,88.05
2022-12-08T05:50:02.970Z,88.88
2022-12-08T05:54:58.581Z,89.09
2022-12-08T05:59:58.917Z,89.71
2022-12-08T06:04:58.972Z,89.09
2022-12-08T06:09:59.809Z,88.88
2022-12-08T06:14:58.632Z,88.78
2022-12-08T06:19:58.411Z,87.80
2022-12-08T06:24:58.456Z,87.70
2022-12-08T06:29:58.109Z,87.01
2022-12-08T06:34:58.040Z,87.53
2022-12-08T06:39:58.347Z,88.82
2022-12-08T06:44:58.126Z,88.46
2022-12-08T06:49:58.415Z,87.95
2022-12-08T06:54:58.217Z,88.15
2022-12-08T06:59:58.017Z,87.90
2022-12-08T07:04:57.649Z,87.28
2022-12-08T07:09:57.567Z,87.70
2022-12-08T07:14:57.657Z,87.28
2022-12-08T07:19:57.536Z,86.87
2022-12-08T07:24:57.386Z,87.38
2022-12-08T07:29:57.720Z,87.35
2022-12-08T07:35:01.225Z,87.24
2022-12-08T07:39:57.276Z,86.72
2022-12-08T07:45:01.026Z,89.31
2022-12-08T07:49:57.447Z,89.42
2022-12-08T07:54:57.293Z,89.00
2022-12-08T07:59:56.915Z,87.87
2022-12-08T08:04:57.010Z,87.28
2022-12-08T08:09:56.994Z,87.45
2022-12-08T08:14:57.113Z,87.55
2022-12-08T08:19:56.993Z,87.35
2022-12-08T08:24:57.338Z,87.38
2022-12-08T08:29:56.935Z,87.90
2022-12-08T08:35:00.844Z,87.43
2022-12-08T08:39:56.387Z,88.36
2022-12-08T08:44:56.338Z,88.15
2022-12-08T08:49:56.239Z,88.78
2022-12-08T08:54:56.399Z,88.57
2022-12-08T08:59:57.557Z,88.26
2022-12-08T09:04:56.422Z,88.26
2022-12-08T09:10:01.794Z,89.77
2022-12-08T09:14:57.337Z,89.21
2022-12-08T09:19:55.838Z,87.66
2022-12-08T09:24:59.616Z,88.30
2022-12-08T09:29:55.695Z,86.71
2022-12-08T09:34:57.076Z,83.53
2022-12-08T09:39:56.175Z,81.21
2022-12-08T09:44:56.351Z,79.42
2022-12-08T09:49:55.636Z,79.25
2022-12-08T09:54:55.469Z,77.59
2022-12-08T09:59:55.588Z,76.73
2022-12-08T10:04:55.424Z,76.94
2022-12-08T10:09:55.887Z,76.32
2022-12-08T10:14:55.369Z,75.46
2022-12-08T10:19:55.530Z,75.12
2022-12-08T10:24:56.438Z,74.71
2022-12-08T10:29:55.063Z,74.19
2022-12-08T10:34:58.785Z,74.29
2022-12-08T10:39:54.765Z,74.22
2022-12-08T10:44:55.314Z,74.12
2022-12-08T10:49:56.090Z,73.19
2022-12-08T10:54:54.757Z,71.44
2022-12-08T10:59:54.798Z,71.41
2022-12-08T11:04:58.467Z,71.34
2022-12-08T11:09:54.559Z,71.10
2022-12-08T11:14:54.399Z,69.25
2022-12-08T11:19:54.337Z,69.28
2022-12-08T11:24:54.159Z,70.62
2022-12-08T11:29:54.236Z,70.62
2022-12-08T11:34:54.227Z,71.00
2022-12-08T11:39:54.061Z,72.03
2022-12-08T11:44:57.700Z,70.18
2022-12-08T11:49:54.109Z,69.70
2022-12-08T11:54:54.132Z,68.56
2022-12-08T11:59:54.162Z,68.39
2022-12-08T12:04:53.630Z,69.31
2022-12-08T12:09:53.581Z,68.93
2022-12-08T12:14:53.592Z,69.35
2022-12-08T12:19:53.545Z,69.86
2022-12-08T12:24:53.469Z,68.25
2022-12-08T12:29:55.942Z,67.77
2022-12-08T12:34:53.261Z,67.84
2022-12-08T12:39:53.670Z,68.22
2022-12-08T12:44:53.400Z,67.30
2022-12-08T12:49:53.065Z,67.40
2022-12-08T12:54:53.052Z,67.40
2022-12-08T12:59:56.892Z,68.63
2022-12-08T13:04:52.932Z,67.63
2022-12-08T13:09:52.862Z,68.46
2022-12-08T13:14:53.094Z,68.70
2022-12-08T13:19:56.770Z,69.62
2022-12-08T13:24:52.723Z,69.45
2022-12-08T13:29:52.973Z,70.28
2022-12-08T13:34:52.622Z,70.34
2022-12-08T13:39:52.554Z,69.45
2022-12-08T13:56:16.604Z,70.10
2022-12-08T13:59:53.145Z,70.20
2022-12-08T14:05:17.617Z,71.34
2022-12-08T14:09:53.582Z,70.86
2022-12-08T14:15:07.546Z,72.30
2022-12-08T14:19:53.053Z,72.85
2022-12-08T14:24:51.958Z,73.29
2022-12-08T14:29:51.793Z,73.43
2022-12-08T14:34:55.716Z,74.05
2022-12-08T14:39:53.055Z,73.67
2022-12-08T14:44:51.795Z,73.88
2022-12-08T14:49:51.733Z,74.71
2022-12-08T14:54:52.866Z,75.43
2022-12-08T14:59:55.365Z,76.50
2022-12-08T15:04:51.376Z,76.60
2022-12-08T15:09:52.693Z,77.01
2022-12-08T15:14:51.313Z,77.15
2022-12-08T15:19:51.433Z,78.39
2022-12-08T15:24:52.466Z,78.39
2022-12-08T15:29:51.222Z,79.02
2022-12-08T15:34:51.166Z,78.74
2022-12-08T15:39:50.856Z,79.50
2022-12-08T15:44:51.094Z,80.12
2022-12-08T15:49:54.665Z,80.88
2022-12-08T15:54:50.656Z,80.68
2022-12-08T15:59:50.895Z,80.88
2022-12-08T16:09:52.986Z,80.22
2022-12-08T16:19:51.613Z,79.60
2022-12-08T16:24:54.118Z,79.71
2022-12-08T16:29:54.167Z,79.71
2022-12-08T16:34:54.188Z,79.71
2022-12-08T16:39:50.317Z,78.43
2022-12-08T16:44:53.996Z,79.36
2022-12-08T16:49:49.918Z,78.95
2022-12-08T16:54:49.983Z,78.74
2022-12-08T16:59:50.004Z,78.64
2022-12-08T17:04:50.329Z,77.91
2022-12-08T17:09:49.953Z,78.33
2022-12-08T17:14:49.865Z,78.02
2022-12-08T17:19:49.916Z,76.88
2022-12-08T17:24:50.925Z,77.81
2022-12-08T17:29:49.481Z,77.60
2022-12-08T17:34:49.426Z,77.09
2022-12-08T17:39:51.033Z,79.75
2022-12-08T17:44:50.104Z,62.20
2022-12-08T17:49:49.314Z,58.55
2022-12-08T17:54:49.356Z,62.01
2022-12-08T17:59:50.512Z,67.81
2022-12-08T18:04:49.314Z,69.38
2022-12-08T18:09:50.411Z,71.85
2022-12-08T18:14:50.325Z,72.81
2022-12-08T18:19:49.425Z,73.88
2022-12-08T18:24:49.466Z,74.43
2022-12-08T18:29:53.582Z,75.81
2022-12-08T18:34:48.728Z,75.81
2022-12-08T18:39:49.967Z,76.57
2022-12-08T18:44:49.914Z,76.05
2022-12-08T18:49:48.822Z,76.36
2022-12-08T18:55:05.719Z,77.09
2022-12-08T18:59:50.743Z,76.36
2022-12-08T19:04:48.761Z,76.46
2022-12-08T19:09:48.864Z,76.57
2022-12-08T19:14:49.575Z,76.67
2022-12-08T19:19:49.386Z,75.74
2022-12-08T19:24:47.959Z,75.95
2022-12-08T19:29:49.279Z,76.26
2022-12-08T19:34:48.523Z,75.95
2022-12-08T19:39:49.134Z,76.26
2022-12-08T19:44:49.059Z,75.78
2022-12-08T19:49:49.033Z,76.09
2022-12-08T19:54:47.572Z,75.88
2022-12-08T19:59:53.023Z,75.53
2022-12-08T20:04:49.794Z,75.43
2022-12-08T20:09:47.649Z,75.53
2022-12-08T20:14:47.230Z,75.43
2022-12-08T20:19:47.318Z,75.84
2022-12-08T20:24:56.324Z,75.43
2022-12-08T20:29:48.726Z,75.63
2022-12-08T20:34:51.105Z,76.36
2022-12-08T20:39:47.461Z,76.78
2022-12-08T20:44:47.065Z,78.22
2022-12-08T20:49:48.301Z,78.43
2022-12-08T20:54:48.365Z,79.09
2022-12-08T20:59:48.331Z,79.95
2022-12-08T21:04:48.144Z,81.51
2022-12-08T21:09:47.035Z,82.03
2022-12-08T21:14:48.029Z,84.09
2022-12-08T21:19:47.403Z,85.03
2022-12-08T21:24:47.859Z,83.72
2022-12-08T21:29:46.930Z,85.06
2022-12-08T21:34:46.515Z,85.52
2022-12-08T21:39:47.757Z,86.35
2022-12-08T21:44:47.967Z,86.76
2022-12-08T21:49:47.741Z,87.63
2022-12-08T21:54:47.421Z,88.05
2022-12-08T21:59:47.487Z,89.75
2022-12-08T22:04:47.424Z,90.37
2022-12-08T22:09:46.407Z,90.23
2022-12-08T22:14:47.269Z,90.02
2022-12-08T22:19:47.174Z,90.12
2022-12-08T22:24:46.670Z,89.19
2022-12-08T22:29:46.441Z,89.50
2022-12-08T22:34:45.563Z,89.71
2022-12-08T22:39:45.614Z,89.71
2022-12-08T22:44:50.055Z,90.27
2022-12-08T22:49:45.838Z,91.00
2022-12-08T22:54:46.816Z,90.79
2022-12-08T22:59:46.084Z,90.44
2022-12-08T23:04:46.704Z,90.44
2022-12-08T23:09:46.415Z,90.27
2022-12-08T23:14:45.162Z,90.69
2022-12-08T23:19:47.938Z,90.89
2022-12-08T23:24:46.179Z,90.95
2022-12-08T23:29:46.283Z,90.75
2022-12-08T23:34:46.053Z,90.44
2022-12-08T23:39:46.048Z,89.50
2022-12-08T23:44:45.937Z,88.98
2022-12-08T23:49:44.474Z,88.98
2022-12-08T23:54:46.105Z,89.61
2022-12-08T23:59:45.989Z,89.29
